sensor_id;sensor_type;location;lat;lon;timestamp;P1;durP1;ratioP1;P2;durP2;ratioP2
82473;SDS011;72350;53.232;6.556;2024-01-30T00:01:28;20.55;;;14.40;;
82473;SDS011;72350;53.232;6.556;2024-01-30T00:03:57;22.67;;;14.55;;
82473;SDS011;72350;53.232;6.556;2024-01-30T00:06:25;18.10;;;13.80;;
82473;SDS011;72350;53.232;6.556;2024-01-30T00:08:53;17.05;;;13.38;;
82473;SDS011;72350;53.232;6.556;2024-01-30T00:11:21;19.75;;;13.32;;
82473;SDS011;72350;53.232;6.556;2024-01-30T00:13:53;21.80;;;14.55;;
82473;SDS011;72350;53.232;6.556;2024-01-30T00:16:21;23.50;;;15.55;;
82473;SDS011;72350;53.232;6.556;2024-01-30T00:18:50;20.38;;;14.43;;
82473;SDS011;72350;53.232;6.556;2024-01-30T00:21:19;21.58;;;15.07;;
82473;SDS011;72350;53.232;6.556;2024-01-30T00:23:47;20.73;;;13.88;;
82473;SDS011;72350;53.232;6.556;2024-01-30T00:26:15;22.77;;;15.27;;
82473;SDS011;72350;53.232;6.556;2024-01-30T00:28:44;22.73;;;13.90;;
82473;SDS011;72350;53.232;6.556;2024-01-30T00:31:13;17.83;;;13.40;;
82473;SDS011;72350;53.232;6.556;2024-01-30T00:33:41;20.52;;;14.40;;
82473;SDS011;72350;53.232;6.556;2024-01-30T00:36:09;21.73;;;14.82;;
82473;SDS011;72350;53.232;6.556;2024-01-30T00:38:38;20.17;;;14.02;;
82473;SDS011;72350;53.232;6.556;2024-01-30T00:41:07;19.58;;;14.57;;
82473;SDS011;72350;53.232;6.556;2024-01-30T00:43:35;18.98;;;13.57;;
82473;SDS011;72350;53.232;6.556;2024-01-30T00:46:04;21.20;;;15.27;;
82473;SDS011;72350;53.232;6.556;2024-01-30T00:48:34;22.65;;;14.05;;
82473;SDS011;72350;53.232;6.556;2024-01-30T00:51:02;19.45;;;14.32;;
82473;SDS011;72350;53.232;6.556;2024-01-30T00:53:30;20.65;;;13.95;;
82473;SDS011;72350;53.232;6.556;2024-01-30T00:55:58;16.83;;;12.85;;
82473;SDS011;72350;53.232;6.556;2024-01-30T00:58:26;23.77;;;15.18;;
82473;SDS011;72350;53.232;6.556;2024-01-30T01:00:54;21.33;;;14.68;;
82473;SDS011;72350;53.232;6.556;2024-01-30T01:03:22;22.73;;;14.55;;
82473;SDS011;72350;53.232;6.556;2024-01-30T01:05:52;21.15;;;14.48;;
82473;SDS011;72350;53.232;6.556;2024-01-30T01:08:20;22.70;;;15.40;;
82473;SDS011;72350;53.232;6.556;2024-01-30T01:10:48;21.25;;;14.32;;
82473;SDS011;72350;53.232;6.556;2024-01-30T01:13:16;21.52;;;15.10;;
82473;SDS011;72350;53.232;6.556;2024-01-30T01:15:44;22.60;;;14.88;;
82473;SDS011;72350;53.232;6.556;2024-01-30T01:18:12;23.75;;;14.30;;
82473;SDS011;72350;53.232;6.556;2024-01-30T01:20:40;21.92;;;14.18;;
82473;SDS011;72350;53.232;6.556;2024-01-30T01:23:09;20.48;;;14.07;;
82473;SDS011;72350;53.232;6.556;2024-01-30T01:25:37;24.27;;;14.40;;
82473;SDS011;72350;53.232;6.556;2024-01-30T01:28:05;21.35;;;14.07;;
82473;SDS011;72350;53.232;6.556;2024-01-30T01:30:33;23.85;;;15.30;;
82473;SDS011;72350;53.232;6.556;2024-01-30T01:33:02;20.60;;;15.50;;
82473;SDS011;72350;53.232;6.556;2024-01-30T01:35:30;21.52;;;15.65;;
82473;SDS011;72350;53.232;6.556;2024-01-30T01:37:58;21.75;;;14.02;;
82473;SDS011;72350;53.232;6.556;2024-01-30T01:40:29;19.52;;;14.25;;
82473;SDS011;72350;53.232;6.556;2024-01-30T01:42:57;20.88;;;15.02;;
82473;SDS011;72350;53.232;6.556;2024-01-30T01:45:25;21.05;;;14.32;;
82473;SDS011;72350;53.232;6.556;2024-01-30T01:47:53;23.52;;;14.68;;
82473;SDS011;72350;53.232;6.556;2024-01-30T01:50:21;28.50;;;15.93;;
82473;SDS011;72350;53.232;6.556;2024-01-30T01:52:51;22.75;;;14.75;;
82473;SDS011;72350;53.232;6.556;2024-01-30T01:55:20;21.08;;;14.70;;
82473;SDS011;72350;53.232;6.556;2024-01-30T01:57:52;23.20;;;14.88;;
82473;SDS011;72350;53.232;6.556;2024-01-30T02:00:21;20.30;;;13.90;;
82473;SDS011;72350;53.232;6.556;2024-01-30T02:02:50;19.05;;;13.95;;
82473;SDS011;72350;53.232;6.556;2024-01-30T02:05:20;19.98;;;14.10;;
82473;SDS011;72350;53.232;6.556;2024-01-30T02:07:49;22.52;;;15.60;;
82473;SDS011;72350;53.232;6.556;2024-01-30T02:10:18;21.52;;;14.38;;
82473;SDS011;72350;53.232;6.556;2024-01-30T02:12:46;19.20;;;14.00;;
82473;SDS011;72350;53.232;6.556;2024-01-30T02:15:16;21.38;;;13.50;;
82473;SDS011;72350;53.232;6.556;2024-01-30T02:17:44;19.40;;;14.05;;
82473;SDS011;72350;53.232;6.556;2024-01-30T02:20:12;20.73;;;14.27;;
82473;SDS011;72350;53.232;6.556;2024-01-30T02:22:42;20.95;;;14.05;;
82473;SDS011;72350;53.232;6.556;2024-01-30T02:25:10;20.45;;;14.00;;
82473;SDS011;72350;53.232;6.556;2024-01-30T02:27:38;19.55;;;13.82;;
82473;SDS011;72350;53.232;6.556;2024-01-30T02:30:07;23.90;;;15.02;;
82473;SDS011;72350;53.232;6.556;2024-01-30T02:32:35;22.75;;;15.18;;
82473;SDS011;72350;53.232;6.556;2024-01-30T02:35:03;19.23;;;13.93;;
82473;SDS011;72350;53.232;6.556;2024-01-30T02:37:32;18.38;;;14.50;;
82473;SDS011;72350;53.232;6.556;2024-01-30T02:40:01;23.17;;;14.88;;
82473;SDS011;72350;53.232;6.556;2024-01-30T02:42:29;21.05;;;14.00;;
82473;SDS011;72350;53.232;6.556;2024-01-30T02:44:57;20.45;;;14.50;;
82473;SDS011;72350;53.232;6.556;2024-01-30T02:47:25;20.58;;;13.88;;
82473;SDS011;72350;53.232;6.556;2024-01-30T02:49:53;17.17;;;13.27;;
82473;SDS011;72350;53.232;6.556;2024-01-30T02:52:22;19.58;;;13.45;;
82473;SDS011;72350;53.232;6.556;2024-01-30T02:54:50;19.67;;;13.73;;
82473;SDS011;72350;53.232;6.556;2024-01-30T02:57:19;19.48;;;14.05;;
82473;SDS011;72350;53.232;6.556;2024-01-30T02:59:47;21.15;;;13.48;;
82473;SDS011;72350;53.232;6.556;2024-01-30T03:02:14;18.25;;;13.75;;
82473;SDS011;72350;53.232;6.556;2024-01-30T03:04:42;18.85;;;13.38;;
82473;SDS011;72350;53.232;6.556;2024-01-30T03:07:11;16.70;;;12.90;;
82473;SDS011;72350;53.232;6.556;2024-01-30T03:09:40;19.95;;;12.88;;
82473;SDS011;72350;53.232;6.556;2024-01-30T03:12:09;17.98;;;12.80;;
82473;SDS011;72350;53.232;6.556;2024-01-30T03:14:38;19.10;;;13.93;;
82473;SDS011;72350;53.232;6.556;2024-01-30T03:17:06;18.95;;;12.10;;
82473;SDS011;72350;53.232;6.556;2024-01-30T03:19:34;21.35;;;13.20;;
82473;SDS011;72350;53.232;6.556;2024-01-30T03:22:05;20.35;;;14.35;;
82473;SDS011;72350;53.232;6.556;2024-01-30T03:24:33;17.27;;;12.55;;
82473;SDS011;72350;53.232;6.556;2024-01-30T03:27:01;21.52;;;13.10;;
82473;SDS011;72350;53.232;6.556;2024-01-30T03:29:30;22.45;;;13.50;;
82473;SDS011;72350;53.232;6.556;2024-01-30T03:31:59;18.77;;;13.07;;
82473;SDS011;72350;53.232;6.556;2024-01-30T03:34:27;21.08;;;13.13;;
82473;SDS011;72350;53.232;6.556;2024-01-30T03:36:55;22.80;;;14.18;;
82473;SDS011;72350;53.232;6.556;2024-01-30T03:39:24;18.48;;;13.18;;
82473;SDS011;72350;53.232;6.556;2024-01-30T03:41:52;18.38;;;12.65;;
82473;SDS011;72350;53.232;6.556;2024-01-30T03:44:19;16.90;;;12.52;;
82473;SDS011;72350;53.232;6.556;2024-01-30T03:46:47;19.52;;;13.18;;
82473;SDS011;72350;53.232;6.556;2024-01-30T03:49:17;20.85;;;12.93;;
82473;SDS011;72350;53.232;6.556;2024-01-30T03:51:45;23.10;;;13.50;;
82473;SDS011;72350;53.232;6.556;2024-01-30T03:54:14;19.75;;;12.88;;
82473;SDS011;72350;53.232;6.556;2024-01-30T03:56:42;17.58;;;12.07;;
82473;SDS011;72350;53.232;6.556;2024-01-30T03:59:11;18.20;;;12.70;;
82473;SDS011;72350;53.232;6.556;2024-01-30T04:01:39;16.55;;;12.82;;
82473;SDS011;72350;53.232;6.556;2024-01-30T04:04:07;17.20;;;12.35;;
82473;SDS011;72350;53.232;6.556;2024-01-30T04:06:37;18.98;;;12.88;;
82473;SDS011;72350;53.232;6.556;2024-01-30T04:09:06;19.10;;;12.10;;
82473;SDS011;72350;53.232;6.556;2024-01-30T04:11:34;17.42;;;12.15;;
82473;SDS011;72350;53.232;6.556;2024-01-30T04:14:03;19.77;;;12.77;;
82473;SDS011;72350;53.232;6.556;2024-01-30T04:16:31;20.00;;;13.25;;
82473;SDS011;72350;53.232;6.556;2024-01-30T04:18:59;20.95;;;12.63;;
82473;SDS011;72350;53.232;6.556;2024-01-30T04:21:27;21.30;;;12.85;;
82473;SDS011;72350;53.232;6.556;2024-01-30T04:23:56;19.77;;;12.15;;
82473;SDS011;72350;53.232;6.556;2024-01-30T04:26:24;19.50;;;12.05;;
82473;SDS011;72350;53.232;6.556;2024-01-30T04:28:53;15.35;;;11.15;;
82473;SDS011;72350;53.232;6.556;2024-01-30T04:31:21;17.35;;;11.95;;
82473;SDS011;72350;53.232;6.556;2024-01-30T04:33:49;15.77;;;11.98;;
82473;SDS011;72350;53.232;6.556;2024-01-30T04:36:20;16.90;;;11.13;;
82473;SDS011;72350;53.232;6.556;2024-01-30T04:38:48;18.98;;;11.65;;
82473;SDS011;72350;53.232;6.556;2024-01-30T04:41:17;18.67;;;12.98;;
82473;SDS011;72350;53.232;6.556;2024-01-30T04:43:45;19.30;;;11.70;;
82473;SDS011;72350;53.232;6.556;2024-01-30T04:46:13;16.15;;;11.05;;
82473;SDS011;72350;53.232;6.556;2024-01-30T04:48:41;17.98;;;11.73;;
82473;SDS011;72350;53.232;6.556;2024-01-30T04:51:09;20.35;;;12.00;;
82473;SDS011;72350;53.232;6.556;2024-01-30T04:53:38;17.15;;;11.27;;
82473;SDS011;72350;53.232;6.556;2024-01-30T04:56:06;17.73;;;11.60;;
82473;SDS011;72350;53.232;6.556;2024-01-30T04:58:37;17.08;;;10.90;;
82473;SDS011;72350;53.232;6.556;2024-01-30T05:01:05;17.42;;;11.95;;
82473;SDS011;72350;53.232;6.556;2024-01-30T05:03:33;19.55;;;10.95;;
82473;SDS011;72350;53.232;6.556;2024-01-30T05:06:02;17.15;;;10.95;;
82473;SDS011;72350;53.232;6.556;2024-01-30T05:08:31;15.27;;;11.35;;
82473;SDS011;72350;53.232;6.556;2024-01-30T05:10:59;16.10;;;10.73;;
82473;SDS011;72350;53.232;6.556;2024-01-30T05:13:30;17.23;;;11.18;;
82473;SDS011;72350;53.232;6.556;2024-01-30T05:16:00;17.23;;;11.07;;
82473;SDS011;72350;53.232;6.556;2024-01-30T05:18:31;15.80;;;11.70;;
82473;SDS011;72350;53.232;6.556;2024-01-30T05:20:59;15.95;;;11.20;;
82473;SDS011;72350;53.232;6.556;2024-01-30T05:23:27;15.27;;;10.82;;
82473;SDS011;72350;53.232;6.556;2024-01-30T05:25:55;12.68;;;10.50;;
82473;SDS011;72350;53.232;6.556;2024-01-30T05:28:23;17.55;;;11.65;;
82473;SDS011;72350;53.232;6.556;2024-01-30T05:30:51;14.57;;;9.65;;
82473;SDS011;72350;53.232;6.556;2024-01-30T05:33:21;17.63;;;10.90;;
82473;SDS011;72350;53.232;6.556;2024-01-30T05:35:50;14.50;;;10.70;;
82473;SDS011;72350;53.232;6.556;2024-01-30T05:38:21;17.60;;;10.80;;
82473;SDS011;72350;53.232;6.556;2024-01-30T05:40:49;14.80;;;10.38;;
82473;SDS011;72350;53.232;6.556;2024-01-30T05:43:17;16.00;;;11.38;;
82473;SDS011;72350;53.232;6.556;2024-01-30T05:45:45;15.25;;;11.82;;
82473;SDS011;72350;53.232;6.556;2024-01-30T05:48:13;15.55;;;11.32;;
82473;SDS011;72350;53.232;6.556;2024-01-30T05:50:43;16.90;;;11.48;;
82473;SDS011;72350;53.232;6.556;2024-01-30T05:53:12;20.92;;;12.95;;
82473;SDS011;72350;53.232;6.556;2024-01-30T05:55:40;19.08;;;12.50;;
82473;SDS011;72350;53.232;6.556;2024-01-30T05:58:08;22.75;;;16.58;;
82473;SDS011;72350;53.232;6.556;2024-01-30T06:00:36;24.30;;;14.68;;
82473;SDS011;72350;53.232;6.556;2024-01-30T06:03:05;18.27;;;12.00;;
82473;SDS011;72350;53.232;6.556;2024-01-30T06:05:33;19.13;;;11.23;;
82473;SDS011;72350;53.232;6.556;2024-01-30T06:08:03;15.98;;;11.20;;
82473;SDS011;72350;53.232;6.556;2024-01-30T06:10:32;24.85;;;15.90;;
82473;SDS011;72350;53.232;6.556;2024-01-30T06:13:01;16.70;;;12.15;;
82473;SDS011;72350;53.232;6.556;2024-01-30T06:15:29;17.23;;;12.02;;
82473;SDS011;72350;53.232;6.556;2024-01-30T06:17:59;16.55;;;12.27;;
82473;SDS011;72350;53.232;6.556;2024-01-30T06:20:27;22.65;;;14.55;;
82473;SDS011;72350;53.232;6.556;2024-01-30T06:22:55;18.48;;;11.73;;
82473;SDS011;72350;53.232;6.556;2024-01-30T06:25:25;18.13;;;12.77;;
82473;SDS011;72350;53.232;6.556;2024-01-30T06:27:54;16.67;;;12.32;;
82473;SDS011;72350;53.232;6.556;2024-01-30T06:30:22;19.60;;;11.45;;
82473;SDS011;72350;53.232;6.556;2024-01-30T06:32:50;17.50;;;12.82;;
82473;SDS011;72350;53.232;6.556;2024-01-30T06:35:19;20.30;;;13.52;;
82473;SDS011;72350;53.232;6.556;2024-01-30T06:37:49;17.50;;;11.55;;
82473;SDS011;72350;53.232;6.556;2024-01-30T06:40:17;19.33;;;12.60;;
82473;SDS011;72350;53.232;6.556;2024-01-30T06:42:48;24.98;;;16.08;;
82473;SDS011;72350;53.232;6.556;2024-01-30T06:45:16;20.02;;;12.68;;
82473;SDS011;72350;53.232;6.556;2024-01-30T06:47:44;18.13;;;11.95;;
82473;SDS011;72350;53.232;6.556;2024-01-30T06:50:13;16.98;;;12.27;;
82473;SDS011;72350;53.232;6.556;2024-01-30T06:52:42;19.48;;;12.80;;
82473;SDS011;72350;53.232;6.556;2024-01-30T06:55:11;23.48;;;14.40;;
82473;SDS011;72350;53.232;6.556;2024-01-30T06:57:39;17.67;;;12.20;;
82473;SDS011;72350;53.232;6.556;2024-01-30T07:00:09;18.92;;;12.48;;
82473;SDS011;72350;53.232;6.556;2024-01-30T07:02:40;18.60;;;12.05;;
82473;SDS011;72350;53.232;6.556;2024-01-30T07:05:09;20.80;;;12.05;;
82473;SDS011;72350;53.232;6.556;2024-01-30T07:07:37;22.48;;;15.38;;
82473;SDS011;72350;53.232;6.556;2024-01-30T07:10:06;21.63;;;16.20;;
82473;SDS011;72350;53.232;6.556;2024-01-30T07:12:35;23.15;;;13.25;;
82473;SDS011;72350;53.232;6.556;2024-01-30T07:15:04;18.70;;;11.73;;
82473;SDS011;72350;53.232;6.556;2024-01-30T07:17:36;16.02;;;10.95;;
82473;SDS011;72350;53.232;6.556;2024-01-30T07:20:04;16.70;;;11.90;;
82473;SDS011;72350;53.232;6.556;2024-01-30T07:22:34;25.25;;;13.35;;
82473;SDS011;72350;53.232;6.556;2024-01-30T07:25:02;21.13;;;13.02;;
82473;SDS011;72350;53.232;6.556;2024-01-30T07:27:31;21.30;;;12.50;;
82473;SDS011;72350;53.232;6.556;2024-01-30T07:29:59;22.00;;;13.50;;
82473;SDS011;72350;53.232;6.556;2024-01-30T07:32:27;20.38;;;11.88;;
82473;SDS011;72350;53.232;6.556;2024-01-30T07:34:56;16.88;;;11.85;;
82473;SDS011;72350;53.232;6.556;2024-01-30T07:37:34;18.25;;;11.27;;
82473;SDS011;72350;53.232;6.556;2024-01-30T07:40:04;17.40;;;11.82;;
82473;SDS011;72350;53.232;6.556;2024-01-30T07:42:33;16.70;;;10.75;;
82473;SDS011;72350;53.232;6.556;2024-01-30T07:45:02;17.23;;;11.60;;
82473;SDS011;72350;53.232;6.556;2024-01-30T07:47:30;22.05;;;13.60;;
82473;SDS011;72350;53.232;6.556;2024-01-30T07:49:59;20.88;;;12.38;;
82473;SDS011;72350;53.232;6.556;2024-01-30T07:52:28;19.65;;;11.65;;
82473;SDS011;72350;53.232;6.556;2024-01-30T07:54:56;17.77;;;11.90;;
82473;SDS011;72350;53.232;6.556;2024-01-30T07:57:24;18.92;;;12.07;;
82473;SDS011;72350;53.232;6.556;2024-01-30T07:59:52;18.25;;;11.27;;
82473;SDS011;72350;53.232;6.556;2024-01-30T08:02:20;23.77;;;14.57;;
82473;SDS011;72350;53.232;6.556;2024-01-30T08:04:48;17.05;;;11.38;;
82473;SDS011;72350;53.232;6.556;2024-01-30T08:07:19;16.45;;;11.23;;
82473;SDS011;72350;53.232;6.556;2024-01-30T08:09:48;16.30;;;11.10;;
82473;SDS011;72350;53.232;6.556;2024-01-30T08:12:16;18.30;;;11.13;;
82473;SDS011;72350;53.232;6.556;2024-01-30T08:14:45;18.10;;;11.13;;
82473;SDS011;72350;53.232;6.556;2024-01-30T08:17:13;17.17;;;11.45;;
82473;SDS011;72350;53.232;6.556;2024-01-30T08:19:41;18.50;;;10.93;;
82473;SDS011;72350;53.232;6.556;2024-01-30T08:22:09;15.68;;;10.80;;
82473;SDS011;72350;53.232;6.556;2024-01-30T08:24:38;17.27;;;10.82;;
82473;SDS011;72350;53.232;6.556;2024-01-30T08:27:08;19.85;;;12.38;;
82473;SDS011;72350;53.232;6.556;2024-01-30T08:29:37;19.23;;;11.63;;
82473;SDS011;72350;53.232;6.556;2024-01-30T08:32:05;16.45;;;10.32;;
82473;SDS011;72350;53.232;6.556;2024-01-30T08:34:34;17.50;;;10.77;;
82473;SDS011;72350;53.232;6.556;2024-01-30T08:37:02;17.00;;;12.00;;
82473;SDS011;72350;53.232;6.556;2024-01-30T08:39:31;17.00;;;11.00;;
82473;SDS011;72350;53.232;6.556;2024-01-30T08:42:00;15.73;;;10.82;;
82473;SDS011;72350;53.232;6.556;2024-01-30T08:44:29;15.30;;;10.95;;
82473;SDS011;72350;53.232;6.556;2024-01-30T08:46:57;18.45;;;10.73;;
82473;SDS011;72350;53.232;6.556;2024-01-30T08:49:26;15.18;;;10.30;;
82473;SDS011;72350;53.232;6.556;2024-01-30T08:51:54;17.92;;;10.63;;
82473;SDS011;72350;53.232;6.556;2024-01-30T08:54:22;17.65;;;11.23;;
82473;SDS011;72350;53.232;6.556;2024-01-30T08:56:51;15.88;;;11.00;;
82473;SDS011;72350;53.232;6.556;2024-01-30T08:59:21;13.45;;;9.85;;
82473;SDS011;72350;53.232;6.556;2024-01-30T09:01:50;14.80;;;9.90;;
82473;SDS011;72350;53.232;6.556;2024-01-30T09:04:36;24.63;;;14.80;;
82473;SDS011;72350;53.232;6.556;2024-01-30T09:07:05;16.65;;;10.23;;
82473;SDS011;72350;53.232;6.556;2024-01-30T09:09:37;15.52;;;10.10;;
82473;SDS011;72350;53.232;6.556;2024-01-30T09:12:07;15.63;;;11.05;;
82473;SDS011;72350;53.232;6.556;2024-01-30T09:14:38;13.95;;;10.55;;
82473;SDS011;72350;53.232;6.556;2024-01-30T09:17:07;15.38;;;10.25;;
82473;SDS011;72350;53.232;6.556;2024-01-30T09:19:36;14.43;;;10.02;;
82473;SDS011;72350;53.232;6.556;2024-01-30T09:22:04;14.82;;;9.15;;
82473;SDS011;72350;53.232;6.556;2024-01-30T09:24:33;13.93;;;9.95;;
82473;SDS011;72350;53.232;6.556;2024-01-30T09:27:01;14.63;;;10.52;;
82473;SDS011;72350;53.232;6.556;2024-01-30T09:29:29;15.68;;;10.57;;
82473;SDS011;72350;53.232;6.556;2024-01-30T09:31:59;17.45;;;10.82;;
82473;SDS011;72350;53.232;6.556;2024-01-30T09:34:28;17.25;;;10.55;;
82473;SDS011;72350;53.232;6.556;2024-01-30T09:36:56;17.58;;;10.18;;
82473;SDS011;72350;53.232;6.556;2024-01-30T09:39:24;14.35;;;9.88;;
82473;SDS011;72350;53.232;6.556;2024-01-30T09:41:54;16.88;;;9.50;;
82473;SDS011;72350;53.232;6.556;2024-01-30T09:44:28;14.25;;;10.43;;
82473;SDS011;72350;53.232;6.556;2024-01-30T09:46:59;14.45;;;9.75;;
82473;SDS011;72350;53.232;6.556;2024-01-30T09:49:31;16.83;;;9.60;;
82473;SDS011;72350;53.232;6.556;2024-01-30T09:52:00;18.38;;;10.25;;
82473;SDS011;72350;53.232;6.556;2024-01-30T09:54:30;16.92;;;10.07;;
82473;SDS011;72350;53.232;6.556;2024-01-30T09:57:02;19.38;;;10.55;;
82473;SDS011;72350;53.232;6.556;2024-01-30T09:59:32;19.60;;;10.88;;
82473;SDS011;72350;53.232;6.556;2024-01-30T10:02:02;18.30;;;10.43;;
82473;SDS011;72350;53.232;6.556;2024-01-30T10:04:31;16.88;;;10.35;;
82473;SDS011;72350;53.232;6.556;2024-01-30T10:06:59;18.23;;;10.30;;
82473;SDS011;72350;53.232;6.556;2024-01-30T10:09:31;17.02;;;9.45;;
82473;SDS011;72350;53.232;6.556;2024-01-30T10:11:59;15.43;;;10.57;;
82473;SDS011;72350;53.232;6.556;2024-01-30T10:14:30;20.05;;;10.30;;
82473;SDS011;72350;53.232;6.556;2024-01-30T10:16:58;20.55;;;10.13;;
82473;SDS011;72350;53.232;6.556;2024-01-30T10:19:28;23.08;;;10.60;;
82473;SDS011;72350;53.232;6.556;2024-01-30T10:21:56;19.92;;;10.25;;
82473;SDS011;72350;53.232;6.556;2024-01-30T10:24:24;16.85;;;10.10;;
82473;SDS011;72350;53.232;6.556;2024-01-30T10:26:53;17.38;;;10.43;;
82473;SDS011;72350;53.232;6.556;2024-01-30T10:29:22;15.95;;;9.95;;
82473;SDS011;72350;53.232;6.556;2024-01-30T10:32:00;20.67;;;10.73;;
82473;SDS011;72350;53.232;6.556;2024-01-30T10:34:30;18.90;;;10.40;;
82473;SDS011;72350;53.232;6.556;2024-01-30T10:36:59;18.98;;;11.43;;
82473;SDS011;72350;53.232;6.556;2024-01-30T10:39:32;19.42;;;10.98;;
82473;SDS011;72350;53.232;6.556;2024-01-30T10:42:06;17.80;;;10.48;;
82473;SDS011;72350;53.232;6.556;2024-01-30T10:44:41;17.45;;;10.70;;
82473;SDS011;72350;53.232;6.556;2024-01-30T10:47:14;21.80;;;11.00;;
82473;SDS011;72350;53.232;6.556;2024-01-30T10:49:50;19.90;;;10.73;;
82473;SDS011;72350;53.232;6.556;2024-01-30T10:52:19;20.60;;;11.32;;
82473;SDS011;72350;53.232;6.556;2024-01-30T10:54:48;20.58;;;10.45;;
82473;SDS011;72350;53.232;6.556;2024-01-30T10:57:18;19.98;;;10.77;;
82473;SDS011;72350;53.232;6.556;2024-01-30T10:59:51;17.25;;;11.55;;
82473;SDS011;72350;53.232;6.556;2024-01-30T11:02:21;16.88;;;10.57;;
82473;SDS011;72350;53.232;6.556;2024-01-30T11:04:54;21.50;;;11.20;;
82473;SDS011;72350;53.232;6.556;2024-01-30T11:07:25;20.02;;;11.73;;
82473;SDS011;72350;53.232;6.556;2024-01-30T11:09:59;20.30;;;10.98;;
82473;SDS011;72350;53.232;6.556;2024-01-30T11:12:29;16.15;;;10.40;;
82473;SDS011;72350;53.232;6.556;2024-01-30T11:15:03;19.88;;;10.35;;
82473;SDS011;72350;53.232;6.556;2024-01-30T11:17:40;14.90;;;8.98;;
82473;SDS011;72350;53.232;6.556;2024-01-30T11:20:13;16.08;;;9.52;;
82473;SDS011;72350;53.232;6.556;2024-01-30T11:22:47;17.98;;;9.75;;
82473;SDS011;72350;53.232;6.556;2024-01-30T11:25:16;18.80;;;9.35;;
82473;SDS011;72350;53.232;6.556;2024-01-30T11:27:45;14.48;;;9.35;;
82473;SDS011;72350;53.232;6.556;2024-01-30T11:30:21;14.93;;;9.07;;
82473;SDS011;72350;53.232;6.556;2024-01-30T11:33:00;17.98;;;8.60;;
82473;SDS011;72350;53.232;6.556;2024-01-30T11:35:33;18.08;;;8.10;;
82473;SDS011;72350;53.232;6.556;2024-01-30T11:38:03;17.50;;;6.85;;
82473;SDS011;72350;53.232;6.556;2024-01-30T11:40:32;21.15;;;6.97;;
82473;SDS011;72350;53.232;6.556;2024-01-30T11:43:02;16.83;;;6.28;;
82473;SDS011;72350;53.232;6.556;2024-01-30T11:45:31;13.93;;;5.65;;
82473;SDS011;72350;53.232;6.556;2024-01-30T11:48:00;15.73;;;6.28;;
82473;SDS011;72350;53.232;6.556;2024-01-30T11:50:30;13.07;;;5.82;;
82473;SDS011;72350;53.232;6.556;2024-01-30T11:53:01;13.90;;;6.78;;
82473;SDS011;72350;53.232;6.556;2024-01-30T11:55:30;14.05;;;5.60;;
82473;SDS011;72350;53.232;6.556;2024-01-30T11:58:01;16.13;;;5.68;;
82473;SDS011;72350;53.232;6.556;2024-01-30T12:00:30;13.52;;;4.93;;
82473;SDS011;72350;53.232;6.556;2024-01-30T12:03:01;7.20;;;4.60;;
82473;SDS011;72350;53.232;6.556;2024-01-30T12:05:30;18.25;;;5.18;;
82473;SDS011;72350;53.232;6.556;2024-01-30T12:08:00;12.02;;;4.60;;
82473;SDS011;72350;53.232;6.556;2024-01-30T12:10:29;10.43;;;4.82;;
82473;SDS011;72350;53.232;6.556;2024-01-30T12:12:57;5.68;;;3.78;;
82473;SDS011;72350;53.232;6.556;2024-01-30T12:15:26;7.72;;;3.05;;
82473;SDS011;72350;53.232;6.556;2024-01-30T12:18:03;4.47;;;2.17;;
82473;SDS011;72350;53.232;6.556;2024-01-30T12:20:31;5.65;;;2.78;;
82473;SDS011;72350;53.232;6.556;2024-01-30T12:23:02;5.70;;;2.20;;
82473;SDS011;72350;53.232;6.556;2024-01-30T12:25:30;4.10;;;1.98;;
82473;SDS011;72350;53.232;6.556;2024-01-30T12:27:59;7.63;;;1.42;;
82473;SDS011;72350;53.232;6.556;2024-01-30T12:30:27;3.30;;;1.17;;
82473;SDS011;72350;53.232;6.556;2024-01-30T12:32:55;4.35;;;1.33;;
82473;SDS011;72350;53.232;6.556;2024-01-30T12:35:24;5.80;;;0.80;;
82473;SDS011;72350;53.232;6.556;2024-01-30T12:37:57;3.45;;;1.33;;
82473;SDS011;72350;53.232;6.556;2024-01-30T12:40:27;5.93;;;1.02;;
82473;SDS011;72350;53.232;6.556;2024-01-30T12:42:55;6.50;;;1.88;;
82473;SDS011;72350;53.232;6.556;2024-01-30T12:45:24;4.78;;;0.68;;
82473;SDS011;72350;53.232;6.556;2024-01-30T12:47:53;2.47;;;0.73;;
82473;SDS011;72350;53.232;6.556;2024-01-30T12:50:22;3.05;;;0.90;;
82473;SDS011;72350;53.232;6.556;2024-01-30T12:52:50;6.97;;;0.88;;
82473;SDS011;72350;53.232;6.556;2024-01-30T12:55:18;1.55;;;0.60;;
82473;SDS011;72350;53.232;6.556;2024-01-30T12:57:48;2.42;;;0.80;;
82473;SDS011;72350;53.232;6.556;2024-01-30T13:00:16;4.13;;;1.40;;
82473;SDS011;72350;53.232;6.556;2024-01-30T13:02:44;6.35;;;0.80;;
82473;SDS011;72350;53.232;6.556;2024-01-30T13:05:12;5.50;;;1.00;;
82473;SDS011;72350;53.232;6.556;2024-01-30T13:07:41;2.53;;;1.00;;
82473;SDS011;72350;53.232;6.556;2024-01-30T13:10:09;2.83;;;1.10;;
82473;SDS011;72350;53.232;6.556;2024-01-30T13:12:38;3.17;;;1.10;;
82473;SDS011;72350;53.232;6.556;2024-01-30T13:15:08;2.72;;;1.45;;
82473;SDS011;72350;53.232;6.556;2024-01-30T13:17:38;4.20;;;0.60;;
82473;SDS011;72350;53.232;6.556;2024-01-30T13:20:06;3.28;;;1.08;;
82473;SDS011;72350;53.232;6.556;2024-01-30T13:22:38;2.38;;;0.65;;
82473;SDS011;72350;53.232;6.556;2024-01-30T13:25:06;1.90;;;0.77;;
82473;SDS011;72350;53.232;6.556;2024-01-30T13:27:35;1.63;;;0.73;;
82473;SDS011;72350;53.232;6.556;2024-01-30T13:30:04;3.65;;;0.75;;
82473;SDS011;72350;53.232;6.556;2024-01-30T13:32:35;2.35;;;0.90;;
82473;SDS011;72350;53.232;6.556;2024-01-30T13:35:04;2.58;;;0.82;;
82473;SDS011;72350;53.232;6.556;2024-01-30T13:37:33;4.50;;;1.10;;
82473;SDS011;72350;53.232;6.556;2024-01-30T13:40:01;3.53;;;0.88;;
82473;SDS011;72350;53.232;6.556;2024-01-30T13:42:33;2.20;;;0.80;;
82473;SDS011;72350;53.232;6.556;2024-01-30T13:45:00;3.15;;;1.10;;
82473;SDS011;72350;53.232;6.556;2024-01-30T13:47:29;2.45;;;0.88;;
82473;SDS011;72350;53.232;6.556;2024-01-30T13:49:58;3.78;;;0.60;;
82473;SDS011;72350;53.232;6.556;2024-01-30T13:52:26;1.85;;;0.70;;
82473;SDS011;72350;53.232;6.556;2024-01-30T13:55:03;2.10;;;0.65;;
82473;SDS011;72350;53.232;6.556;2024-01-30T13:57:32;5.82;;;1.63;;
82473;SDS011;72350;53.232;6.556;2024-01-30T14:00:02;1.30;;;0.47;;
82473;SDS011;72350;53.232;6.556;2024-01-30T14:02:39;6.78;;;1.00;;
82473;SDS011;72350;53.232;6.556;2024-01-30T14:05:09;6.22;;;0.90;;
82473;SDS011;72350;53.232;6.556;2024-01-30T14:07:38;2.55;;;1.08;;
82473;SDS011;72350;53.232;6.556;2024-01-30T14:10:07;3.25;;;0.85;;
82473;SDS011;72350;53.232;6.556;2024-01-30T14:12:41;2.67;;;0.73;;
82473;SDS011;72350;53.232;6.556;2024-01-30T14:15:11;2.80;;;1.00;;
82473;SDS011;72350;53.232;6.556;2024-01-30T14:17:54;1.17;;;0.30;;
82473;SDS011;72350;53.232;6.556;2024-01-30T14:20:24;3.15;;;0.70;;
82473;SDS011;72350;53.232;6.556;2024-01-30T14:22:52;1.58;;;0.50;;
82473;SDS011;72350;53.232;6.556;2024-01-30T14:25:22;2.72;;;0.68;;
82473;SDS011;72350;53.232;6.556;2024-01-30T14:27:51;3.33;;;1.05;;
82473;SDS011;72350;53.232;6.556;2024-01-30T14:30:20;2.13;;;0.60;;
82473;SDS011;72350;53.232;6.556;2024-01-30T14:32:49;2.67;;;0.50;;
82473;SDS011;72350;53.232;6.556;2024-01-30T14:35:18;2.17;;;0.50;;
82473;SDS011;72350;53.232;6.556;2024-01-30T14:37:49;1.70;;;0.60;;